Time;durP1;ratioP1;P1;durP2;ratioP2;P2;SDS_P1;SDS_P2;PMS_P1;PMS_P2;Temp;Humidity;BMP_temperature;BMP_pressure;BME280_temperature;BME280_humidity;BME280_pressure;Samples;Min_cycle;Max_cycle;Signal;HPM_P1;HPM_P2
2023/09/17 00:00:46;;;;;;;11.20;10.20;;;;;;;;;;6274614;22;20719;-66
2023/09/17 00:03:14;;;;;;;10.70;9.70;;;;;;;;;;6274632;22;20657;-66
2023/09/17 00:05:42;;;;;;;20.17;10.33;;;;;;;;;;6274538;22;20940;-66
2023/09/17 00:08:12;;;;;;;9.70;8.90;;;;;;;;;;6248889;22;20696;-66
2023/09/17 00:10:43;;;;;;;11.20;10.20;;;;;;;;;;6275234;22;20653;-65
2023/09/17 00:13:13;;;;;;;9.83;8.60;;;;;;;;;;6242828;23;20701;-66
2023/09/17 00:15:41;;;;;;;11.97;10.53;;;;;;;;;;6243853;23;20578;-66
2023/09/17 00:18:09;;;;;;;10.67;9.80;;;;;;;;;;6244715;23;20653;-66
2023/09/17 00:20:38;;;;;;;9.90;9.20;;;;;;;;;;6242048;23;20717;-66
2023/09/17 00:23:06;;;;;;;12.80;9.60;;;;;;;;;;6244787;23;21197;-66
2023/09/17 00:25:37;;;;;;;10.67;9.67;;;;;;;;;;6244335;23;20658;-66
2023/09/17 00:28:05;;;;;;;11.03;9.93;;;;;;;;;;6244402;23;20673;-66
2023/09/17 00:30:34;;;;;;;13.90;8.70;;;;;;;;;;6244764;23;20654;-66
2023/09/17 00:33:02;;;;;;;9.27;8.57;;;;;;;;;;6243616;23;21260;-66
2023/09/17 00:35:30;;;;;;;9.73;8.83;;;;;;;;;;6244293;23;20991;-66
2023/09/17 00:37:59;;;;;;;10.23;9.33;;;;;;;;;;6242929;22;20669;-66
2023/09/17 00:40:30;;;;;;;11.93;9.33;;;;;;;;;;6243186;23;20673;-66
2023/09/17 00:43:00;;;;;;;9.10;8.40;;;;;;;;;;6243424;23;20705;-66
2023/09/17 00:45:29;;;;;;;9.80;8.90;;;;;;;;;;6244501;23;20924;-65
2023/09/17 00:48:00;;;;;;;10.77;9.67;;;;;;;;;;6242031;23;20697;-65
2023/09/17 00:50:30;;;;;;;9.40;8.60;;;;;;;;;;6243023;23;20697;-65
2023/09/17 00:52:58;;;;;;;9.20;8.33;;;;;;;;;;6243550;23;20651;-65
2023/09/17 00:55:29;;;;;;;9.93;9.03;;;;;;;;;;6242134;23;20669;-66
2023/09/17 00:57:58;;;;;;;10.20;9.40;;;;;;;;;;6242693;23;20633;-66
2023/09/17 01:00:28;;;;;;;17.73;9.57;;;;;;;;;;6246866;23;20658;-67
2023/09/17 01:02:56;;;;;;;9.33;8.63;;;;;;;;;;6263474;23;20575;-67
2023/09/17 01:05:25;;;;;;;9.10;8.40;;;;;;;;;;6266813;23;20582;-67
2023/09/17 01:07:54;;;;;;;9.20;7.90;;;;;;;;;;6266200;23;20764;-66
2023/09/17 01:10:24;;;;;;;9.60;8.80;;;;;;;;;;6266719;23;20567;-66
2023/09/17 01:12:52;;;;;;;10.10;9.30;;;;;;;;;;6265312;23;20618;-67
2023/09/17 01:15:21;;;;;;;10.07;9.27;;;;;;;;;;6265226;23;20610;-66
2023/09/17 01:17:54;;;;;;;11.80;10.60;;;;;;;;;;6265629;23;20567;-66
2023/09/17 01:20:29;;;;;;;11.63;10.60;;;;;;;;;;6265012;23;20535;-67
2023/09/17 01:22:59;;;;;;;11.13;10.07;;;;;;;;;;6265223;23;20542;-66
2023/09/17 01:25:40;;;;;;;10.23;9.43;;;;;;;;;;6263955;23;20562;-67
2023/09/17 01:28:11;;;;;;;14.73;9.60;;;;;;;;;;6264521;23;20579;-66
2023/09/17 01:30:41;;;;;;;9.47;8.43;;;;;;;;;;6265138;23;20532;-67
2023/09/17 01:33:12;;;;;;;9.77;8.73;;;;;;;;;;6264888;23;20546;-66
2023/09/17 01:35:45;;;;;;;10.43;9.43;;;;;;;;;;6266096;23;20543;-67
2023/09/17 01:38:14;;;;;;;10.60;9.20;;;;;;;;;;6264970;23;20547;-67
2023/09/17 01:40:45;;;;;;;9.40;8.60;;;;;;;;;;6265262;23;20574;-67
2023/09/17 01:43:16;;;;;;;9.67;8.77;;;;;;;;;;6265744;23;20571;-67
2023/09/17 01:45:44;;;;;;;10.53;9.53;;;;;;;;;;6265366;23;20598;-67
2023/09/17 01:48:14;;;;;;;10.40;9.60;;;;;;;;;;6266257;23;20611;-66
2023/09/17 01:50:43;;;;;;;10.40;9.40;;;;;;;;;;6265124;23;20563;-66
2023/09/17 01:53:12;;;;;;;9.70;8.90;;;;;;;;;;6266069;23;20571;-67
2023/09/17 01:55:42;;;;;;;10.03;9.23;;;;;;;;;;6265650;23;20567;-66
2023/09/17 01:58:11;;;;;;;10.13;9.30;;;;;;;;;;6264974;23;20555;-67
2023/09/17 02:00:40;;;;;;;10.47;9.50;;;;;;;;;;6265728;23;20575;-67
2023/09/17 02:03:09;;;;;;;10.77;9.87;;;;;;;;;;6264610;23;20578;-66
2023/09/17 02:05:37;;;;;;;11.33;10.33;;;;;;;;;;6264965;23;20578;-66
2023/09/17 02:08:05;;;;;;;9.40;8.67;;;;;;;;;;6263567;23;20634;-66
2023/09/17 02:10:33;;;;;;;9.33;8.63;;;;;;;;;;6264121;23;20583;-66
2023/09/17 02:13:02;;;;;;;10.90;9.30;;;;;;;;;;6260881;23;20620;-66
2023/09/17 02:15:31;;;;;;;10.20;9.33;;;;;;;;;;6263980;23;20563;-66
2023/09/17 02:18:00;;;;;;;11.80;10.37;;;;;;;;;;6264934;23;20578;-67
2023/09/17 02:20:29;;;;;;;11.50;10.50;;;;;;;;;;6263044;23;20605;-66
2023/09/17 02:22:57;;;;;;;12.00;10.97;;;;;;;;;;6263761;23;20571;-67
2023/09/17 02:25:25;;;;;;;9.97;9.17;;;;;;;;;;6265203;23;20598;-66
2023/09/17 02:27:53;;;;;;;9.97;9.03;;;;;;;;;;6264174;23;20582;-66
2023/09/17 02:30:22;;;;;;;12.90;11.73;;;;;;;;;;6264463;23;20574;-66
2023/09/17 02:32:50;;;;;;;10.40;9.40;;;;;;;;;;6264518;23;21010;-66
2023/09/17 02:35:20;;;;;;;10.93;10.03;;;;;;;;;;6265112;23;20601;-66
2023/09/17 02:37:51;;;;;;;13.23;11.77;;;;;;;;;;6263683;23;20539;-66
2023/09/17 02:40:19;;;;;;;13.47;12.33;;;;;;;;;;6264414;23;20579;-66
2023/09/17 02:42:47;;;;;;;13.50;12.20;;;;;;;;;;6264581;23;20574;-66
2023/09/17 02:45:15;;;;;;;13.37;12.27;;;;;;;;;;6264435;23;21173;-66
2023/09/17 02:47:44;;;;;;;14.37;12.83;;;;;;;;;;6264496;23;20575;-66
2023/09/17 02:50:12;;;;;;;14.80;13.20;;;;;;;;;;6265935;23;20586;-66
2023/09/17 02:52:41;;;;;;;16.80;15.00;;;;;;;;;;6261242;23;20575;-66
2023/09/17 02:55:10;;;;;;;16.47;14.80;;;;;;;;;;6263629;23;20558;-66
2023/09/17 02:57:38;;;;;;;15.20;13.67;;;;;;;;;;6263485;23;20575;-66
2023/09/17 03:00:10;;;;;;;14.60;13.30;;;;;;;;;;6264088;23;20575;-66
2023/09/17 03:02:40;;;;;;;15.77;14.27;;;;;;;;;;6262038;23;20574;-66
2023/09/17 03:05:10;;;;;;;15.03;13.60;;;;;;;;;;6264064;23;20563;-66
2023/09/17 03:07:38;;;;;;;16.17;13.30;;;;;;;;;;6263950;23;20575;-66
2023/09/17 03:10:11;;;;;;;14.47;12.97;;;;;;;;;;6262442;23;20618;-66
2023/09/17 03:12:40;;;;;;;13.93;12.50;;;;;;;;;;6260099;23;20614;-66
2023/09/17 03:15:09;;;;;;;14.67;13.37;;;;;;;;;;6259566;23;20571;-66
2023/09/17 03:17:38;;;;;;;15.23;13.90;;;;;;;;;;6261393;23;20571;-66
2023/09/17 03:20:13;;;;;;;17.80;14.50;;;;;;;;;;6237689;23;20578;-66
2023/09/17 03:22:42;;;;;;;13.73;12.43;;;;;;;;;;6264161;23;20539;-66
2023/09/17 03:25:12;;;;;;;14.83;13.40;;;;;;;;;;6263773;23;20602;-66
2023/09/17 03:27:42;;;;;;;18.00;14.30;;;;;;;;;;6265400;23;21020;-66
2023/09/17 03:30:10;;;;;;;16.70;15.00;;;;;;;;;;6261238;23;20621;-66
2023/09/17 03:32:39;;;;;;;15.87;14.27;;;;;;;;;;6263947;23;20578;-66
2023/09/17 03:35:09;;;;;;;16.40;14.80;;;;;;;;;;6262883;23;20626;-66
2023/09/17 03:37:37;;;;;;;15.60;14.20;;;;;;;;;;6214247;23;20605;-66
2023/09/17 03:40:10;;;;;;;15.33;13.87;;;;;;;;;;6264462;23;20589;-67
2023/09/17 03:42:40;;;;;;;16.13;14.50;;;;;;;;;;6265467;23;20535;-66
2023/09/17 03:45:10;;;;;;;16.63;14.93;;;;;;;;;;6263748;23;20905;-66
2023/09/17 03:47:40;;;;;;;18.07;14.37;;;;;;;;;;6264483;23;20546;-66
2023/09/17 03:50:09;;;;;;;15.70;14.20;;;;;;;;;;6266153;23;20614;-66
2023/09/17 03:52:38;;;;;;;14.43;13.00;;;;;;;;;;6264511;23;20566;-66
2023/09/17 03:55:08;;;;;;;16.40;14.47;;;;;;;;;;6264539;23;20558;-66
2023/09/17 03:57:38;;;;;;;15.30;13.90;;;;;;;;;;6265092;23;20582;-66
2023/09/17 04:00:10;;;;;;;15.60;14.00;;;;;;;;;;6265865;23;20569;-66
2023/09/17 04:02:43;;;;;;;17.47;15.77;;;;;;;;;;6263358;23;20593;-66
2023/09/17 04:05:14;;;;;;;17.83;15.93;;;;;;;;;;6263152;23;20585;-67
2023/09/17 04:07:42;;;;;;;17.23;15.53;;;;;;;;;;6266428;23;20545;-66
2023/09/17 04:10:12;;;;;;;17.10;15.50;;;;;;;;;;6264220;23;20617;-66
2023/09/17 04:12:41;;;;;;;16.87;15.23;;;;;;;;;;6264321;23;20630;-66
2023/09/17 04:15:16;;;;;;;17.77;15.77;;;;;;;;;;6264556;23;20575;-65
2023/09/17 04:17:45;;;;;;;18.70;16.40;;;;;;;;;;6264987;23;20535;-66
2023/09/17 04:20:14;;;;;;;18.63;16.30;;;;;;;;;;6266137;23;20567;-66
2023/09/17 04:22:42;;;;;;;17.63;15.00;;;;;;;;;;6265706;23;20570;-66
2023/09/17 04:25:12;;;;;;;17.10;15.50;;;;;;;;;;6263408;23;20578;-67
2023/09/17 04:27:42;;;;;;;23.10;17.13;;;;;;;;;;6263864;23;20567;-66
2023/09/17 04:30:14;;;;;;;18.13;15.93;;;;;;;;;;6263745;23;20617;-66
2023/09/17 04:32:43;;;;;;;16.23;14.30;;;;;;;;;;6265350;23;21046;-67
2023/09/17 04:35:12;;;;;;;17.50;15.90;;;;;;;;;;6265130;23;20567;-67
2023/09/17 04:37:41;;;;;;;17.07;15.57;;;;;;;;;;6240413;23;20566;-67
2023/09/17 04:40:11;;;;;;;16.53;14.90;;;;;;;;;;6240111;23;20527;-67
2023/09/17 04:42:43;;;;;;;17.30;15.10;;;;;;;;;;6266471;23;20562;-66
2023/09/17 04:45:13;;;;;;;17.50;15.40;;;;;;;;;;6266677;23;20539;-67
2023/09/17 04:47:42;;;;;;;17.63;15.93;;;;;;;;;;6267012;23;20619;-67
2023/09/17 04:50:12;;;;;;;20.03;15.83;;;;;;;;;;6265767;23;20603;-67
2023/09/17 04:52:41;;;;;;;17.30;15.77;;;;;;;;;;6264621;23;21136;-67
2023/09/17 04:55:09;;;;;;;18.40;16.70;;;;;;;;;;6288818;22;20575;-66
2023/09/17 04:57:38;;;;;;;19.10;17.10;;;;;;;;;;6266101;23;20574;-67
2023/09/17 05:00:10;;;;;;;20.93;16.50;;;;;;;;;;6264654;23;20574;-66
2023/09/17 05:02:40;;;;;;;17.30;15.60;;;;;;;;;;6263874;23;20618;-67
2023/09/17 05:05:10;;;;;;;18.43;16.40;;;;;;;;;;6265971;23;20589;-66
2023/09/17 05:07:39;;;;;;;19.20;17.30;;;;;;;;;;6266328;23;20556;-66
2023/09/17 05:10:08;;;;;;;17.53;14.90;;;;;;;;;;6265728;23;20606;-66
2023/09/17 05:12:37;;;;;;;17.20;15.60;;;;;;;;;;6264318;23;20614;-66
2023/09/17 05:15:06;;;;;;;17.10;15.30;;;;;;;;;;6265131;23;20571;-67
2023/09/17 05:17:36;;;;;;;16.67;14.97;;;;;;;;;;6265094;23;20563;-66
2023/09/17 05:20:07;;;;;;;17.10;15.50;;;;;;;;;;6266174;23;20589;-66
2023/09/17 05:22:36;;;;;;;18.20;14.77;;;;;;;;;;6267733;23;20550;-66
2023/09/17 05:25:06;;;;;;;14.83;13.50;;;;;;;;;;6266710;23;20630;-65
2023/09/17 05:27:34;;;;;;;18.30;14.80;;;;;;;;;;6266389;23;20546;-66
2023/09/17 05:30:03;;;;;;;16.50;14.70;;;;;;;;;;6266815;23;20590;-66
2023/09/17 05:32:32;;;;;;;15.27;13.87;;;;;;;;;;6265972;23;20574;-66
2023/09/17 05:35:03;;;;;;;16.73;14.63;;;;;;;;;;6267326;23;20582;-66
2023/09/17 05:37:32;;;;;;;16.50;14.90;;;;;;;;;;6266679;23;20542;-66
2023/09/17 05:40:04;;;;;;;16.70;15.00;;;;;;;;;;6265527;23;20538;-66
2023/09/17 05:42:33;;;;;;;16.67;14.77;;;;;;;;;;6265668;23;20574;-66
2023/09/17 05:45:03;;;;;;;18.57;15.83;;;;;;;;;;6263030;23;20582;-66
2023/09/17 05:47:32;;;;;;;17.40;15.80;;;;;;;;;;6262922;23;20574;-66
2023/09/17 05:50:00;;;;;;;18.40;14.73;;;;;;;;;;6265027;23;20607;-66
2023/09/17 05:52:33;;;;;;;16.30;14.77;;;;;;;;;;6268159;22;20527;-66
2023/09/17 05:55:04;;;;;;;17.30;15.67;;;;;;;;;;6271441;22;20563;-65
2023/09/17 05:57:33;;;;;;;17.53;15.60;;;;;;;;;;6271209;22;20527;-67
2023/09/17 06:00:05;;;;;;;16.70;14.97;;;;;;;;;;6272086;22;20559;-66
2023/09/17 06:02:42;;;;;;;15.93;14.50;;;;;;;;;;6270065;22;20539;-66
2023/09/17 06:05:12;;;;;;;16.17;14.67;;;;;;;;;;6270267;22;20538;-66
2023/09/17 06:07:42;;;;;;;17.07;15.47;;;;;;;;;;6272030;22;20554;-67
2023/09/17 06:10:11;;;;;;;16.60;14.97;;;;;;;;;;6272467;22;20603;-66
2023/09/17 06:12:39;;;;;;;15.50;14.00;;;;;;;;;;6271372;23;20597;-68
2023/09/17 06:15:09;;;;;;;15.03;13.60;;;;;;;;;;6271509;22;20582;-66
2023/09/17 06:17:37;;;;;;;14.53;13.33;;;;;;;;;;6251001;22;20578;-66
2023/09/17 06:20:06;;;;;;;14.30;12.83;;;;;;;;;;6250626;22;20573;-67
2023/09/17 06:22:35;;;;;;;13.23;11.93;;;;;;;;;;6302137;22;20581;-66
2023/09/17 06:25:06;;;;;;;14.57;12.00;;;;;;;;;;6275491;22;20958;-66
2023/09/17 06:27:35;;;;;;;13.37;12.07;;;;;;;;;;6275965;22;20586;-66
2023/09/17 06:30:05;;;;;;;13.40;12.13;;;;;;;;;;6276289;22;20614;-66
2023/09/17 06:32:33;;;;;;;13.37;12.03;;;;;;;;;;6276701;22;20558;-67
2023/09/17 06:35:02;;;;;;;13.33;12.23;;;;;;;;;;6276557;22;20562;-66
2023/09/17 06:37:30;;;;;;;13.50;12.30;;;;;;;;;;6250751;22;20552;-66
2023/09/17 06:39:59;;;;;;;13.33;12.13;;;;;;;;;;6276811;22;20574;-66
2023/09/17 06:42:29;;;;;;;12.60;11.50;;;;;;;;;;6275208;22;20566;-66
2023/09/17 06:44:57;;;;;;;12.90;11.80;;;;;;;;;;6302402;22;20550;-66
2023/09/17 06:47:25;;;;;;;14.80;13.30;;;;;;;;;;6300963;22;20573;-66
2023/09/17 06:49:54;;;;;;;13.53;11.80;;;;;;;;;;6276056;22;20577;-66
2023/09/17 06:52:23;;;;;;;13.27;11.97;;;;;;;;;;6301572;22;20600;-66
2023/09/17 06:54:51;;;;;;;12.83;11.73;;;;;;;;;;6302649;22;20701;-66
2023/09/17 06:57:20;;;;;;;13.27;11.93;;;;;;;;;;6299637;22;20581;-66
2023/09/17 06:59:49;;;;;;;14.17;12.77;;;;;;;;;;6301025;22;20574;-68
2023/09/17 07:02:17;;;;;;;14.67;13.13;;;;;;;;;;6299064;22;20593;-66
2023/09/17 07:04:46;;;;;;;15.60;14.00;;;;;;;;;;6293434;22;20574;-66
2023/09/17 07:07:14;;;;;;;14.20;12.00;;;;;;;;;;6292852;22;20664;-65
2023/09/17 07:09:43;;;;;;;13.77;12.57;;;;;;;;;;6294836;22;20562;-66
2023/09/17 07:12:11;;;;;;;13.00;11.70;;;;;;;;;;6292346;22;20613;-66
2023/09/17 07:14:39;;;;;;;13.73;12.57;;;;;;;;;;6294813;22;20566;-66
2023/09/17 07:17:09;;;;;;;14.00;12.27;;;;;;;;;;6294086;22;20570;-66
2023/09/17 07:19:38;;;;;;;11.97;10.90;;;;;;;;;;6294204;22;20585;-66
2023/09/17 07:22:11;;;;;;;13.20;12.10;;;;;;;;;;6294118;22;20566;-66
2023/09/17 07:24:39;;;;;;;11.87;10.63;;;;;;;;;;6293696;22;20526;-66
2023/09/17 07:27:08;;;;;;;14.63;13.33;;;;;;;;;;6266070;22;20608;-66
2023/09/17 07:29:36;;;;;;;12.70;11.40;;;;;;;;;;6291973;22;20585;-66
2023/09/17 07:32:04;;;;;;;13.90;12.40;;;;;;;;;;6292142;22;20610;-66
2023/09/17 07:34:34;;;;;;;12.20;10.70;;;;;;;;;;6291956;22;20566;-66
2023/09/17 07:37:04;;;;;;;13.00;11.70;;;;;;;;;;6291952;22;20573;-66
2023/09/17 07:39:32;;;;;;;11.37;10.37;;;;;;;;;;6264564;22;20546;-66
2023/09/17 07:42:01;;;;;;;13.00;11.07;;;;;;;;;;6290900;22;21065;-66
2023/09/17 07:44:29;;;;;;;12.53;11.13;;;;;;;;;;6291609;22;20592;-66
2023/09/17 07:46:57;;;;;;;12.73;10.70;;;;;;;;;;6291224;22;20570;-65
2023/09/17 07:49:28;;;;;;;12.00;11.00;;;;;;;;;;6239758;22;20570;-67
2023/09/17 07:51:57;;;;;;;17.27;12.20;;;;;;;;;;6269227;22;21186;-66
2023/09/17 07:54:26;;;;;;;11.90;10.80;;;;;;;;;;6294831;22;20572;-66
2023/09/17 07:56:54;;;;;;;12.13;10.93;;;;;;;;;;6267526;22;20578;-66
2023/09/17 07:59:22;;;;;;;15.43;10.83;;;;;;;;;;6269352;22;20554;-66
2023/09/17 08:01:51;;;;;;;15.00;11.53;;;;;;;;;;6295246;22;20570;-66
2023/09/17 08:04:19;;;;;;;11.60;10.50;;;;;;;;;;6293640;22;20566;-66
2023/09/17 08:06:49;;;;;;;11.20;10.10;;;;;;;;;;6267841;22;20577;-65
2023/09/17 08:09:18;;;;;;;14.00;9.40;;;;;;;;;;6267593;22;20581;-66
2023/09/17 08:11:47;;;;;;;12.17;10.97;;;;;;;;;;6293377;22;20637;-65
2023/09/17 08:14:15;;;;;;;10.70;9.70;;;;;;;;;;6293035;22;20570;-66
2023/09/17 08:16:43;;;;;;;10.67;9.77;;;;;;;;;;6293521;22;20562;-65
2023/09/17 08:19:11;;;;;;;10.60;9.60;;;;;;;;;;6294722;22;20569;-66
2023/09/17 08:21:39;;;;;;;9.63;8.83;;;;;;;;;;6269130;22;20567;-66
2023/09/17 08:24:10;;;;;;;11.67;10.33;;;;;;;;;;6267403;22;20574;-66
2023/09/17 08:27:09;;;;;;;10.13;9.20;;;;;;;;;;6296525;22;20988;-66
2023/09/17 08:29:58;;;;;;;9.40;8.57;;;;;;;;;;6297225;22;20574;-65
2023/09/17 08:32:46;;;;;;;10.43;9.50;;;;;;;;;;6297361;22;20602;-65
2023/09/17 08:35:34;;;;;;;10.27;9.37;;;;;;;;;;6273979;22;20537;-65
2023/09/17 08:38:02;;;;;;;8.00;7.40;;;;;;;;;;6297242;22;20608;-66
2023/09/17 08:40:33;;;;;;;8.17;7.47;;;;;;;;;;6295807;22;20573;-65
2023/09/17 08:43:04;;;;;;;8.83;7.93;;;;;;;;;;6296232;22;20542;-66
2023/09/17 08:45:32;;;;;;;7.43;6.83;;;;;;;;;;6295626;22;20549;-66
2023/09/17 08:48:00;;;;;;;8.40;7.80;;;;;;;;;;6296610;22;20574;-65
2023/09/17 08:50:30;;;;;;;8.20;7.50;;;;;;;;;;6268561;22;20562;-65
2023/09/17 08:53:02;;;;;;;7.07;6.40;;;;;;;;;;6295850;22;20558;-65
2023/09/17 08:55:31;;;;;;;8.87;7.50;;;;;;;;;;6295092;22;20526;-66
2023/09/17 08:58:05;;;;;;;8.67;7.97;;;;;;;;;;6294964;22;20562;-65
2023/09/17 09:00:36;;;;;;;11.03;8.30;;;;;;;;;;6295292;22;20534;-67
2023/09/17 09:03:04;;;;;;;7.97;6.90;;;;;;;;;;6294011;22;20541;-67
2023/09/17 09:05:33;;;;;;;9.77;8.87;;;;;;;;;;6268815;22;20566;-67
2023/09/17 09:08:03;;;;;;;6.43;5.90;;;;;;;;;;6296639;22;20573;-67
2023/09/17 09:10:31;;;;;;;7.30;6.60;;;;;;;;;;6294833;22;21545;-67
2023/09/17 09:13:00;;;;;;;10.83;6.30;;;;;;;;;;6295910;22;20626;-67
2023/09/17 09:15:29;;;;;;;6.00;5.50;;;;;;;;;;6297249;22;20564;-68
2023/09/17 09:17:58;;;;;;;9.23;6.07;;;;;;;;;;6296554;22;20577;-67
2023/09/17 09:20:26;;;;;;;6.83;6.23;;;;;;;;;;6295994;22;20969;-67
2023/09/17 09:22:55;;;;;;;5.80;5.20;;;;;;;;;;6269840;22;20581;-68
2023/09/17 09:25:28;;;;;;;6.63;5.30;;;;;;;;;;6297487;22;20570;-66
2023/09/17 09:27:57;;;;;;;7.00;6.30;;;;;;;;;;6296564;22;20538;-67
2023/09/17 09:30:27;;;;;;;6.20;5.70;;;;;;;;;;6296648;22;20570;-69
2023/09/17 09:32:55;;;;;;;6.70;6.17;;;;;;;;;;6296480;22;21223;-67
2023/09/17 09:35:24;;;;;;;7.10;6.53;;;;;;;;;;6297013;22;20562;-66
2023/09/17 09:37:53;;;;;;;7.43;6.83;;;;;;;;;;6296314;22;20578;-67
2023/09/17 09:40:24;;;;;;;6.23;5.80;;;;;;;;;;6294684;22;20577;-67
2023/09/17 09:42:52;;;;;;;7.83;6.07;;;;;;;;;;6287581;22;20566;-68
2023/09/17 09:45:20;;;;;;;6.17;5.60;;;;;;;;;;6277861;22;20720;-67
2023/09/17 09:47:50;;;;;;;6.70;6.13;;;;;;;;;;6290255;22;20617;-68
2023/09/17 09:50:26;;;;;;;6.03;5.63;;;;;;;;;;6263995;22;20594;-66
2023/09/17 09:52:54;;;;;;;6.27;5.60;;;;;;;;;;6264459;22;20640;-67
2023/09/17 09:55:24;;;;;;;6.83;6.23;;;;;;;;;;6285434;22;20605;-67
2023/09/17 09:57:53;;;;;;;6.00;5.70;;;;;;;;;;6235746;22;20601;-67
2023/09/17 10:00:26;;;;;;;6.17;5.57;;;;;;;;;;6291562;22;20547;-65
2023/09/17 10:02:54;;;;;;;9.23;7.30;;;;;;;;;;6265827;22;20549;-66
2023/09/17 10:05:34;;;;;;;8.77;7.10;;;;;;;;;;6292609;22;20581;-66
2023/09/17 10:08:04;;;;;;;7.60;7.00;;;;;;;;;;6293909;22;20527;-67
2023/09/17 10:10:33;;;;;;;6.87;6.47;;;;;;;;;;6293773;22;20567;-67
2023/09/17 10:13:03;;;;;;;8.90;6.47;;;;;;;;;;6241186;22;20680;-65
2023/09/17 10:15:32;;;;;;;7.80;7.10;;;;;;;;;;6267238;22;20538;-66
2023/09/17 10:18:01;;;;;;;10.53;9.40;;;;;;;;;;6265355;22;20574;-67
2023/09/17 10:20:30;;;;;;;7.93;6.40;;;;;;;;;;6293126;22;20592;-67
2023/09/17 10:23:00;;;;;;;7.07;6.57;;;;;;;;;;6292939;22;20570;-66
2023/09/17 10:25:31;;;;;;;8.27;7.10;;;;;;;;;;6292698;22;20548;-66
2023/09/17 10:27:59;;;;;;;7.33;6.53;;;;;;;;;;6292128;22;20538;-67
2023/09/17 10:30:28;;;;;;;9.13;7.13;;;;;;;;;;6292507;22;20585;-65
2023/09/17 10:32:56;;;;;;;6.53;6.10;;;;;;;;;;6293351;22;20618;-66
2023/09/17 10:35:24;;;;;;;7.47;6.57;;;;;;;;;;6291775;22;20720;-66
2023/09/17 10:37:53;;;;;;;7.10;6.57;;;;;;;;;;6292827;22;20596;-66
2023/09/17 10:40:23;;;;;;;7.90;6.57;;;;;;;;;;6240902;22;20538;-65
2023/09/17 10:42:52;;;;;;;6.83;6.37;;;;;;;;;;6291877;22;20566;-65
2023/09/17 10:45:22;;;;;;;7.70;7.00;;;;;;;;;;6291005;22;20667;-65
2023/09/17 10:47:51;;;;;;;6.87;6.40;;;;;;;;;;6293044;22;20581;-65
2023/09/17 10:50:20;;;;;;;7.10;6.30;;;;;;;;;;6291480;22;20574;-65
2023/09/17 10:52:49;;;;;;;8.50;7.77;;;;;;;;;;6291297;22;20621;-66
2023/09/17 10:55:17;;;;;;;9.10;6.90;;;;;;;;;;6292576;22;20570;-66
2023/09/17 10:57:48;;;;;;;7.50;6.80;;;;;;;;;;6291588;22;20550;-65
2023/09/17 11:00:20;;;;;;;8.23;6.90;;;;;;;;;;6293662;22;20894;-66
2023/09/17 11:02:52;;;;;;;7.37;6.90;;;;;;;;;;6291219;22;20542;-67
2023/09/17 11:05:22;;;;;;;8.37;7.50;;;;;;;;;;6292814;22;20519;-66
2023/09/17 11:07:51;;;;;;;8.67;7.90;;;;;;;;;;6292558;22;20534;-66
2023/09/17 11:10:20;;;;;;;8.77;8.00;;;;;;;;;;6293595;22;20573;-66
2023/09/17 11:12:49;;;;;;;8.00;7.40;;;;;;;;;;6265167;22;20614;-65
2023/09/17 11:15:18;;;;;;;8.63;7.70;;;;;;;;;;6293081;22;20570;-66
2023/09/17 11:17:47;;;;;;;8.37;7.57;;;;;;;;;;6292764;22;20573;-65
2023/09/17 11:20:17;;;;;;;9.10;8.20;;;;;;;;;;6292793;22;20601;-67
2023/09/17 11:22:51;;;;;;;8.70;7.70;;;;;;;;;;6291182;22;20535;-65
2023/09/17 11:25:20;;;;;;;13.50;8.33;;;;;;;;;;6293420;22;21065;-66
2023/09/17 11:27:50;;;;;;;9.10;8.23;;;;;;;;;;6291017;22;20584;-65
2023/09/17 11:30:20;;;;;;;8.13;7.33;;;;;;;;;;6293089;22;20538;-66
2023/09/17 11:32:52;;;;;;;8.83;8.10;;;;;;;;;;6291395;22;20638;-66
2023/09/17 11:35:22;;;;;;;11.27;8.10;;;;;;;;;;6291862;22;20593;-65
2023/09/17 11:37:50;;;;;;;8.87;8.07;;;;;;;;;;6290033;22;20578;-66
2023/09/17 11:40:21;;;;;;;9.70;7.67;;;;;;;;;;6288623;22;20597;-66
2023/09/17 11:42:52;;;;;;;8.13;7.43;;;;;;;;;;6289705;22;20546;-67
2023/09/17 11:45:20;;;;;;;8.73;8.03;;;;;;;;;;6290216;22;20538;-66
2023/09/17 11:47:48;;;;;;;8.70;8.00;;;;;;;;;;6292120;22;20570;-67
2023/09/17 11:50:16;;;;;;;12.10;8.00;;;;;;;;;;6291632;22;20604;-66
2023/09/17 11:53:00;;;;;;;8.50;7.80;;;;;;;;;;6291456;22;20610;-67
2023/09/17 11:55:29;;;;;;;10.97;8.83;;;;;;;;;;6292027;22;20534;-66
2023/09/17 11:58:12;;;;;;;11.53;8.20;;;;;;;;;;6290425;22;20731;-66
2023/09/17 12:00:42;;;;;;;9.67;8.47;;;;;;;;;;6289762;22;21106;-66
2023/09/17 12:03:11;;;;;;;13.60;8.30;;;;;;;;;;6288772;22;20594;-66
2023/09/17 12:05:40;;;;;;;11.20;8.70;;;;;;;;;;6289701;22;20601;-67
2023/09/17 12:08:08;;;;;;;9.67;8.53;;;;;;;;;;6266918;22;20592;-66
2023/09/17 12:10:38;;;;;;;9.47;8.40;;;;;;;;;;6293981;22;20581;-67
2023/09/17 12:13:06;;;;;;;10.90;9.17;;;;;;;;;;6292756;22;20656;-67
2023/09/17 12:15:35;;;;;;;11.67;8.80;;;;;;;;;;6292172;22;20562;-66
2023/09/17 12:18:05;;;;;;;9.63;8.70;;;;;;;;;;6242173;22;20566;-66
2023/09/17 12:20:49;;;;;;;10.77;8.60;;;;;;;;;;6293338;22;20566;-66
2023/09/17 12:23:26;;;;;;;10.10;9.03;;;;;;;;;;6292308;22;20535;-66
2023/09/17 12:25:55;;;;;;;9.70;8.93;;;;;;;;;;6293473;22;20526;-67
2023/09/17 12:28:29;;;;;;;9.43;8.53;;;;;;;;;;6292179;22;20570;-66
2023/09/17 12:30:58;;;;;;;11.30;8.93;;;;;;;;;;6291500;22;20605;-66
2023/09/17 12:33:27;;;;;;;9.40;8.80;;;;;;;;;;6268011;22;20987;-67
2023/09/17 12:35:56;;;;;;;9.47;8.63;;;;;;;;;;6295143;22;20574;-66
2023/09/17 12:38:24;;;;;;;10.53;9.07;;;;;;;;;;6295304;22;20566;-66
2023/09/17 12:40:53;;;;;;;10.13;8.93;;;;;;;;;;6294790;22;20916;-66
2023/09/17 12:43:21;;;;;;;10.30;9.13;;;;;;;;;;6295514;22;20566;-66
2023/09/17 12:45:49;;;;;;;12.37;8.80;;;;;;;;;;6295301;22;20570;-66
2023/09/17 12:48:18;;;;;;;9.43;8.50;;;;;;;;;;6267200;22;20570;-66
2023/09/17 12:50:48;;;;;;;11.50;8.90;;;;;;;;;;6268835;22;20581;-67
2023/09/17 12:53:18;;;;;;;8.87;8.10;;;;;;;;;;6295685;22;20601;-67
2023/09/17 12:55:46;;;;;;;11.43;8.67;;;;;;;;;;6295422;22;20557;-66
2023/09/17 12:58:14;;;;;;;11.90;8.50;;;;;;;;;;6295142;22;20653;-66
2023/09/17 13:00:42;;;;;;;13.70;8.97;;;;;;;;;;6295144;22;20562;-66
2023/09/17 13:03:12;;;;;;;12.00;8.70;;;;;;;;;;6241453;22;20566;-66
2023/09/17 13:05:40;;;;;;;9.80;8.97;;;;;;;;;;6293562;22;20554;-66
2023/09/17 13:08:10;;;;;;;11.07;9.17;;;;;;;;;;6294235;22;20589;-66
2023/09/17 13:10:38;;;;;;;9.30;8.50;;;;;;;;;;6296147;22;20577;-67
2023/09/17 13:13:09;;;;;;;16.53;9.77;;;;;;;;;;6292452;22;20618;-67
2023/09/17 13:15:38;;;;;;;10.60;9.30;;;;;;;;;;6267764;22;20531;-66
2023/09/17 13:18:07;;;;;;;9.27;8.33;;;;;;;;;;6293828;22;20577;-65
2023/09/17 13:20:35;;;;;;;10.77;8.47;;;;;;;;;;6267506;22;20574;-68
2023/09/17 13:23:04;;;;;;;9.30;8.70;;;;;;;;;;6292636;22;20570;-66
2023/09/17 13:25:35;;;;;;;9.80;8.90;;;;;;;;;;6268641;22;20656;-66
2023/09/17 13:28:19;;;;;;;10.47;9.40;;;;;;;;;;6292830;22;20541;-67
2023/09/17 13:30:48;;;;;;;9.33;8.63;;;;;;;;;;6290615;22;20590;-67
2023/09/17 13:33:16;;;;;;;9.87;9.00;;;;;;;;;;6292823;22;20994;-67
2023/09/17 13:35:50;;;;;;;27.67;9.97;;;;;;;;;;6294750;22;20572;-66
2023/09/17 13:38:19;;;;;;;11.33;8.37;;;;;;;;;;6293709;22;20576;-67
2023/09/17 13:40:49;;;;;;;9.70;8.70;;;;;;;;;;6243020;22;20581;-68
2023/09/17 13:43:17;;;;;;;12.87;8.57;;;;;;;;;;6266171;22;20581;-66
2023/09/17 13:45:52;;;;;;;8.73;8.13;;;;;;;;;;6293777;22;20608;-66
2023/09/17 13:48:21;;;;;;;10.37;8.50;;;;;;;;;;6292021;22;20575;-67
2023/09/17 13:50:50;;;;;;;10.07;9.00;;;;;;;;;;6294343;22;20580;-67
2023/09/17 13:53:18;;;;;;;10.13;9.10;;;;;;;;;;6291901;22;20620;-66
2023/09/17 13:55:47;;;;;;;9.63;8.73;;;;;;;;;;6266870;22;20609;-66
2023/09/17 13:58:17;;;;;;;8.70;7.97;;;;;;;;;;6264897;22;20581;-67
2023/09/17 14:00:45;;;;;;;8.70;8.20;;;;;;;;;;6292687;22;20561;-67
2023/09/17 14:03:14;;;;;;;9.47;8.57;;;;;;;;;;6261971;22;20608;-67
2023/09/17 14:05:43;;;;;;;9.93;8.10;;;;;;;;;;6276804;22;21002;-69
2023/09/17 14:08:12;;;;;;;8.77;8.07;;;;;;;;;;6280393;22;20667;-70
2023/09/17 14:10:41;;;;;;;13.27;9.23;;;;;;;;;;6259035;22;20611;-67
2023/09/17 14:13:09;;;;;;;9.17;8.53;;;;;;;;;;6277462;22;20681;-66
2023/09/17 14:15:40;;;;;;;8.70;8.00;;;;;;;;;;6254664;22;20562;-65
2023/09/17 14:18:11;;;;;;;8.80;8.20;;;;;;;;;;6251177;22;20656;-67
2023/09/17 14:20:39;;;;;;;11.37;9.03;;;;;;;;;;6281122;22;20626;-68
2023/09/17 14:23:07;;;;;;;9.63;8.70;;;;;;;;;;6293167;22;20567;-68
2023/09/17 14:25:36;;;;;;;14.77;8.50;;;;;;;;;;6266596;22;20566;-67
2023/09/17 14:28:04;;;;;;;10.70;8.10;;;;;;;;;;6292382;22;20574;-67
2023/09/17 14:30:33;;;;;;;8.50;7.90;;;;;;;;;;6291614;22;20624;-68
2023/09/17 14:33:03;;;;;;;9.20;8.30;;;;;;;;;;6290965;22;20573;-68
2023/09/17 14:35:33;;;;;;;8.97;8.13;;;;;;;;;;6290737;22;20651;-67
2023/09/17 14:38:01;;;;;;;9.73;8.70;;;;;;;;;;6291329;22;20575;-67
2023/09/17 14:40:30;;;;;;;8.70;7.90;;;;;;;;;;6285952;22;20604;-67
2023/09/17 14:42:58;;;;;;;9.20;8.30;;;;;;;;;;6262975;22;20598;-67